KAWO

Arlington Municipal Airport

Arlington, Washington, USA
METAR KAWO 230156Z AUTO 31010KT 10SM CLR 21/13 A2982 RMK AO2 SLP104 T02110128
Observed Flight Rules
May-23 @ 01:56 UTC (59 minutes ago) Visual Flight Rules
Wind Visibility Clouds
310° at 10 knots 10 miles
  • Clear skies
Temperatures Readings
Current 21°C / 70°F
Dewpoint 13°C / 55°F
Humidity 60%
Altimeter 29.82" Hg
Pressure 1010.4 hPa
Elevation 42
METAR KAWO 230156Z AUTO 31010KT 10SM CLR 21/13 A2982 RMK AO2 SLP104 T02110128
Observed Flight Rules
May-23 @ 01:56 UTC
(59 minutes ago)
VFR
Wind Visibility
310° at 10 knots 10 miles
Clouds
  • Clear skies
Temperature Dewpoint
21°C / 70°F 13°C / 55°F
Humidity Altimeter Pressure
60% 29.82" Hg 1010.4 hPa